Terminal Aerodrome Forecast
Issued by NWS

Current Version | Previous Version | Text Only | Print | Product List | Glossary Off
Versions: 1 2 3 4 5 6 7 8 9 10 11 12 13 14 15

000
FTUS41 KPBZ 250527
TAFMGW
TAF
KMGW 250527Z 2506/2606 VRB03KT P6SM SCT250
     FM250900 00000KT 3SM BR SKC
     FM251200 20005KT P6SM SCT120=

USA.gov is the U.S. government's official web portal to all federal, state and local government web resources and services.